Terminal Aerodrome Forecast
Issued by NWS

Home | Current Version | Previous Version | Text Only | Print | Product List | Glossary On
Versions: 1 2 3 4 5 6 7 8 9 10 11 12 13 14 15 16 17 18 19 20 21 22 23 24 25 26 27 28 29 30
899
FTUS41 KOKX 240542
TAFSWF
TAF
KSWF 240542Z 2406/2512 VRB02KT P6SM BKN150
     FM240800 VRB02KT P6SM FEW030 BKN120
     FM241300 06006KT P6SM FEW040 BKN100
     FM242100 11008KT P6SM FEW040 BKN150
     FM250400 10012KT P6SM BKN035 OVC050
     FM250900 07014KT 6SM -RA BR BKN015
      AMD NOT SKED=

USA.gov is the U.S. government's official web portal to all federal, state and local government web resources and services.